Terminal Aerodrome Forecast
Issued by NWS

Home | Current Version | Previous Version | Text Only | Print | Product List | Glossary On
Versions: 1 2 3 4 5 6 7 8 9 10 11 12 13 14 15
000
FTUS43 KMQT 051739
TAFIWD
TAF
KIWD 051739Z 0518/0618 20012G19KT P6SM SCT200
     FM060200 20010KT P6SM SCT080 BKN200 WS010/22035KT
     FM061000 19009KT 6SM -SHRA BR SCT025 OVC040
     FM061400 19008KT 4SM -SHRA BR OVC015
     FM061700 29010KT 2SM -SHRA BR OVC007
      AMD LTD TO CLD VIS AND WIND=

USA.gov is the U.S. government's official web portal to all federal, state and local government web resources and services.